sensor_id;sensor_type;location;lat;lon;timestamp;P1;durP1;ratioP1;P2;durP2;ratioP2
23470;SDS011;11908;50.806;4.424;2023-05-01T00:00:16;3.50;;;2.20;;
23470;SDS011;11908;50.806;4.424;2023-05-01T00:02:42;7.45;;;2.60;;
23470;SDS011;11908;50.806;4.424;2023-05-01T00:05:08;2.45;;;2.25;;
23470;SDS011;11908;50.806;4.424;2023-05-01T00:07:34;8.90;;;3.38;;
23470;SDS011;11908;50.806;4.424;2023-05-01T00:09:59;2.65;;;2.22;;
23470;SDS011;11908;50.806;4.424;2023-05-01T00:12:25;3.50;;;2.25;;
23470;SDS011;11908;50.806;4.424;2023-05-01T00:14:54;3.92;;;2.40;;
23470;SDS011;11908;50.806;4.424;2023-05-01T00:17:20;4.80;;;2.42;;
23470;SDS011;11908;50.806;4.424;2023-05-01T00:19:50;2.70;;;2.20;;
23470;SDS011;11908;50.806;4.424;2023-05-01T00:22:18;5.10;;;2.17;;
23470;SDS011;11908;50.806;4.424;2023-05-01T00:24:44;4.13;;;2.15;;
23470;SDS011;11908;50.806;4.424;2023-05-01T00:27:11;3.20;;;2.50;;
23470;SDS011;11908;50.806;4.424;2023-05-01T00:29:38;4.35;;;1.98;;
23470;SDS011;11908;50.806;4.424;2023-05-01T00:32:03;4.63;;;2.47;;
23470;SDS011;11908;50.806;4.424;2023-05-01T00:34:29;8.80;;;2.38;;
23470;SDS011;11908;50.806;4.424;2023-05-01T00:36:55;4.60;;;2.58;;
23470;SDS011;11908;50.806;4.424;2023-05-01T00:39:21;4.75;;;2.13;;
23470;SDS011;11908;50.806;4.424;2023-05-01T00:41:46;6.40;;;2.53;;
23470;SDS011;11908;50.806;4.424;2023-05-01T00:44:12;5.25;;;2.50;;
23470;SDS011;11908;50.806;4.424;2023-05-01T00:46:37;3.75;;;2.40;;
23470;SDS011;11908;50.806;4.424;2023-05-01T00:49:03;4.85;;;2.20;;
23470;SDS011;11908;50.806;4.424;2023-05-01T00:51:29;3.50;;;2.53;;
23470;SDS011;11908;50.806;4.424;2023-05-01T00:53:56;3.75;;;2.75;;
23470;SDS011;11908;50.806;4.424;2023-05-01T00:56:24;3.63;;;2.47;;
23470;SDS011;11908;50.806;4.424;2023-05-01T00:58:50;7.63;;;2.88;;
23470;SDS011;11908;50.806;4.424;2023-05-01T01:04:14;5.22;;;2.80;;
23470;SDS011;11908;50.806;4.424;2023-05-01T01:17:22;4.72;;;2.30;;
23470;SDS011;11908;50.806;4.424;2023-05-01T01:34:25;3.40;;;2.17;;
23470;SDS011;11908;50.806;4.424;2023-05-01T01:36:59;6.03;;;2.80;;
23470;SDS011;11908;50.806;4.424;2023-05-01T01:39:42;4.10;;;2.22;;
23470;SDS011;11908;50.806;4.424;2023-05-01T01:42:21;6.65;;;2.30;;
23470;SDS011;11908;50.806;4.424;2023-05-01T01:44:54;3.10;;;2.28;;
23470;SDS011;11908;50.806;4.424;2023-05-01T01:47:25;3.30;;;2.22;;
23470;SDS011;11908;50.806;4.424;2023-05-01T01:49:55;5.17;;;2.30;;
23470;SDS011;11908;50.806;4.424;2023-05-01T01:52:25;2.97;;;2.22;;
23470;SDS011;11908;50.806;4.424;2023-05-01T01:55:06;5.40;;;2.72;;
23470;SDS011;11908;50.806;4.424;2023-05-01T01:57:38;4.68;;;2.60;;
23470;SDS011;11908;50.806;4.424;2023-05-01T02:00:07;6.38;;;2.50;;
23470;SDS011;11908;50.806;4.424;2023-05-01T02:02:35;4.20;;;2.30;;
23470;SDS011;11908;50.806;4.424;2023-05-01T02:05:04;5.88;;;3.10;;
23470;SDS011;11908;50.806;4.424;2023-05-01T02:07:31;4.47;;;2.58;;
23470;SDS011;11908;50.806;4.424;2023-05-01T02:09:58;2.78;;;2.53;;
23470;SDS011;11908;50.806;4.424;2023-05-01T02:12:26;2.78;;;2.50;;
23470;SDS011;11908;50.806;4.424;2023-05-01T02:14:52;3.92;;;2.65;;
23470;SDS011;11908;50.806;4.424;2023-05-01T02:17:19;7.15;;;2.65;;
23470;SDS011;11908;50.806;4.424;2023-05-01T02:19:46;3.80;;;2.47;;
23470;SDS011;11908;50.806;4.424;2023-05-01T02:22:12;5.05;;;2.70;;
23470;SDS011;11908;50.806;4.424;2023-05-01T02:24:41;6.13;;;2.60;;
23470;SDS011;11908;50.806;4.424;2023-05-01T02:27:14;6.90;;;2.90;;
23470;SDS011;11908;50.806;4.424;2023-05-01T02:29:43;7.13;;;2.80;;
23470;SDS011;11908;50.806;4.424;2023-05-01T02:32:09;4.05;;;2.88;;
23470;SDS011;11908;50.806;4.424;2023-05-01T02:34:36;5.63;;;2.58;;
23470;SDS011;11908;50.806;4.424;2023-05-01T02:37:03;7.65;;;2.85;;
23470;SDS011;11908;50.806;4.424;2023-05-01T02:39:31;4.18;;;2.50;;
23470;SDS011;11908;50.806;4.424;2023-05-01T02:41:58;5.70;;;3.03;;
23470;SDS011;11908;50.806;4.424;2023-05-01T02:44:27;3.25;;;2.63;;
23470;SDS011;11908;50.806;4.424;2023-05-01T02:46:56;4.50;;;2.83;;
23470;SDS011;11908;50.806;4.424;2023-05-01T02:49:24;7.97;;;2.70;;
23470;SDS011;11908;50.806;4.424;2023-05-01T02:51:51;4.35;;;2.70;;
23470;SDS011;11908;50.806;4.424;2023-05-01T02:54:18;4.93;;;2.90;;
23470;SDS011;11908;50.806;4.424;2023-05-01T02:56:44;8.38;;;3.13;;
23470;SDS011;11908;50.806;4.424;2023-05-01T02:59:10;5.05;;;2.85;;
23470;SDS011;11908;50.806;4.424;2023-05-01T03:01:36;4.50;;;2.85;;
23470;SDS011;11908;50.806;4.424;2023-05-01T03:04:02;4.57;;;3.00;;
23470;SDS011;11908;50.806;4.424;2023-05-01T03:06:27;5.38;;;3.17;;
23470;SDS011;11908;50.806;4.424;2023-05-01T03:08:55;3.97;;;2.85;;
23470;SDS011;11908;50.806;4.424;2023-05-01T03:11:20;3.05;;;2.58;;
23470;SDS011;11908;50.806;4.424;2023-05-01T03:13:47;3.53;;;2.72;;
23470;SDS011;11908;50.806;4.424;2023-05-01T03:16:12;2.97;;;2.53;;
23470;SDS011;11908;50.806;4.424;2023-05-01T03:18:38;6.47;;;2.88;;
23470;SDS011;11908;50.806;4.424;2023-05-01T03:21:04;4.78;;;3.25;;
23470;SDS011;11908;50.806;4.424;2023-05-01T03:23:29;5.20;;;3.00;;
23470;SDS011;11908;50.806;4.424;2023-05-01T03:25:55;4.20;;;2.67;;
23470;SDS011;11908;50.806;4.424;2023-05-01T03:28:21;3.90;;;2.75;;
23470;SDS011;11908;50.806;4.424;2023-05-01T03:30:48;7.05;;;3.22;;
23470;SDS011;11908;50.806;4.424;2023-05-01T03:33:16;3.42;;;2.95;;
23470;SDS011;11908;50.806;4.424;2023-05-01T03:35:41;5.53;;;3.20;;
23470;SDS011;11908;50.806;4.424;2023-05-01T03:38:07;6.78;;;3.38;;
23470;SDS011;11908;50.806;4.424;2023-05-01T03:40:33;5.43;;;3.15;;
23470;SDS011;11908;50.806;4.424;2023-05-01T03:42:58;5.00;;;3.08;;
23470;SDS011;11908;50.806;4.424;2023-05-01T03:45:24;3.88;;;3.20;;
23470;SDS011;11908;50.806;4.424;2023-05-01T03:47:50;6.25;;;2.90;;
23470;SDS011;11908;50.806;4.424;2023-05-01T03:50:16;7.38;;;3.25;;
23470;SDS011;11908;50.806;4.424;2023-05-01T03:52:41;7.05;;;3.22;;
23470;SDS011;11908;50.806;4.424;2023-05-01T03:55:07;4.45;;;2.85;;
23470;SDS011;11908;50.806;4.424;2023-05-01T03:57:33;6.93;;;3.10;;
23470;SDS011;11908;50.806;4.424;2023-05-01T03:59:58;5.47;;;3.08;;
23470;SDS011;11908;50.806;4.424;2023-05-01T04:02:24;4.55;;;3.08;;
23470;SDS011;11908;50.806;4.424;2023-05-01T04:04:51;5.70;;;3.28;;
23470;SDS011;11908;50.806;4.424;2023-05-01T04:07:17;4.82;;;2.70;;
23470;SDS011;11908;50.806;4.424;2023-05-01T04:09:42;6.15;;;2.97;;
23470;SDS011;11908;50.806;4.424;2023-05-01T04:12:08;5.60;;;3.05;;
23470;SDS011;11908;50.806;4.424;2023-05-01T04:14:34;3.67;;;2.83;;
23470;SDS011;11908;50.806;4.424;2023-05-01T04:17:00;5.22;;;2.92;;
23470;SDS011;11908;50.806;4.424;2023-05-01T04:19:25;14.40;;;3.10;;
23470;SDS011;11908;50.806;4.424;2023-05-01T04:21:51;4.18;;;3.30;;
23470;SDS011;11908;50.806;4.424;2023-05-01T04:24:18;5.68;;;3.28;;
23470;SDS011;11908;50.806;4.424;2023-05-01T04:26:44;4.78;;;3.00;;
23470;SDS011;11908;50.806;4.424;2023-05-01T04:29:09;6.68;;;3.50;;
23470;SDS011;11908;50.806;4.424;2023-05-01T04:31:35;2.85;;;2.53;;
23470;SDS011;11908;50.806;4.424;2023-05-01T04:34:01;8.27;;;3.30;;
23470;SDS011;11908;50.806;4.424;2023-05-01T04:36:27;6.93;;;3.42;;
23470;SDS011;11908;50.806;4.424;2023-05-01T04:38:53;5.80;;;3.47;;
23470;SDS011;11908;50.806;4.424;2023-05-01T04:41:19;4.85;;;2.92;;
23470;SDS011;11908;50.806;4.424;2023-05-01T04:43:45;5.82;;;3.20;;
23470;SDS011;11908;50.806;4.424;2023-05-01T04:46:11;3.72;;;3.00;;
23470;SDS011;11908;50.806;4.424;2023-05-01T04:48:36;5.35;;;3.60;;
23470;SDS011;11908;50.806;4.424;2023-05-01T04:51:02;9.32;;;3.78;;
23470;SDS011;11908;50.806;4.424;2023-05-01T04:53:28;5.82;;;3.63;;
23470;SDS011;11908;50.806;4.424;2023-05-01T04:55:53;9.23;;;3.35;;
23470;SDS011;11908;50.806;4.424;2023-05-01T04:58:19;4.13;;;3.20;;
23470;SDS011;11908;50.806;4.424;2023-05-01T05:00:45;5.90;;;3.08;;
23470;SDS011;11908;50.806;4.424;2023-05-01T05:03:10;4.80;;;3.35;;
23470;SDS011;11908;50.806;4.424;2023-05-01T05:05:36;4.55;;;2.97;;
23470;SDS011;11908;50.806;4.424;2023-05-01T05:08:02;6.25;;;2.85;;
23470;SDS011;11908;50.806;4.424;2023-05-01T05:10:27;8.90;;;4.32;;
23470;SDS011;11908;50.806;4.424;2023-05-01T05:12:53;5.05;;;2.75;;
23470;SDS011;11908;50.806;4.424;2023-05-01T05:15:19;4.40;;;2.95;;
23470;SDS011;11908;50.806;4.424;2023-05-01T05:17:45;5.45;;;2.72;;
23470;SDS011;11908;50.806;4.424;2023-05-01T05:20:11;8.27;;;3.42;;
23470;SDS011;11908;50.806;4.424;2023-05-01T05:22:36;4.00;;;3.13;;
23470;SDS011;11908;50.806;4.424;2023-05-01T05:25:02;4.78;;;2.65;;
23470;SDS011;11908;50.806;4.424;2023-05-01T05:27:30;6.78;;;3.53;;
23470;SDS011;11908;50.806;4.424;2023-05-01T05:30:00;9.80;;;3.53;;
23470;SDS011;11908;50.806;4.424;2023-05-01T05:32:27;4.55;;;2.90;;
23470;SDS011;11908;50.806;4.424;2023-05-01T05:34:53;5.13;;;3.35;;
23470;SDS011;11908;50.806;4.424;2023-05-01T05:37:19;4.53;;;2.95;;
23470;SDS011;11908;50.806;4.424;2023-05-01T05:39:44;8.07;;;3.30;;
23470;SDS011;11908;50.806;4.424;2023-05-01T05:42:10;6.78;;;3.28;;
23470;SDS011;11908;50.806;4.424;2023-05-01T05:44:35;7.28;;;3.30;;
23470;SDS011;11908;50.806;4.424;2023-05-01T05:47:03;10.32;;;3.30;;
23470;SDS011;11908;50.806;4.424;2023-05-01T05:49:28;11.95;;;3.10;;
23470;SDS011;11908;50.806;4.424;2023-05-01T05:51:54;7.00;;;2.67;;
23470;SDS011;11908;50.806;4.424;2023-05-01T05:54:20;11.25;;;3.15;;
23470;SDS011;11908;50.806;4.424;2023-05-01T05:56:45;3.90;;;3.50;;
23470;SDS011;11908;50.806;4.424;2023-05-01T05:59:11;5.93;;;3.75;;
23470;SDS011;11908;50.806;4.424;2023-05-01T06:01:37;4.43;;;3.30;;
23470;SDS011;11908;50.806;4.424;2023-05-01T06:04:04;7.43;;;4.10;;
23470;SDS011;11908;50.806;4.424;2023-05-01T06:06:30;9.18;;;4.85;;
23470;SDS011;11908;50.806;4.424;2023-05-01T06:08:56;9.07;;;5.88;;
23470;SDS011;11908;50.806;4.424;2023-05-01T06:11:22;9.07;;;6.70;;
23470;SDS011;11908;50.806;4.424;2023-05-01T06:13:48;9.10;;;5.82;;
23470;SDS011;11908;50.806;4.424;2023-05-01T06:16:13;7.03;;;6.22;;
23470;SDS011;11908;50.806;4.424;2023-05-01T06:18:39;8.75;;;6.57;;
23470;SDS011;11908;50.806;4.424;2023-05-01T06:21:05;10.77;;;6.72;;
23470;SDS011;11908;50.806;4.424;2023-05-01T06:23:31;8.68;;;6.13;;
23470;SDS011;11908;50.806;4.424;2023-05-01T06:25:58;7.13;;;6.40;;
23470;SDS011;11908;50.806;4.424;2023-05-01T06:28:24;7.00;;;6.07;;
23470;SDS011;11908;50.806;4.424;2023-05-01T06:30:49;10.68;;;6.38;;
23470;SDS011;11908;50.806;4.424;2023-05-01T06:33:15;9.88;;;7.10;;
23470;SDS011;11908;50.806;4.424;2023-05-01T06:35:41;7.82;;;6.22;;
23470;SDS011;11908;50.806;4.424;2023-05-01T06:38:06;7.35;;;6.40;;
23470;SDS011;11908;50.806;4.424;2023-05-01T06:40:32;8.55;;;6.00;;
23470;SDS011;11908;50.806;4.424;2023-05-01T06:43:00;11.88;;;6.70;;
23470;SDS011;11908;50.806;4.424;2023-05-01T06:45:29;7.90;;;6.07;;
23470;SDS011;11908;50.806;4.424;2023-05-01T06:47:55;9.20;;;6.65;;
23470;SDS011;11908;50.806;4.424;2023-05-01T06:50:20;9.48;;;6.78;;
23470;SDS011;11908;50.806;4.424;2023-05-01T06:52:46;6.90;;;6.10;;
23470;SDS011;11908;50.806;4.424;2023-05-01T06:55:11;8.95;;;6.80;;
23470;SDS011;11908;50.806;4.424;2023-05-01T06:57:37;9.27;;;6.63;;
23470;SDS011;11908;50.806;4.424;2023-05-01T07:00:04;11.90;;;9.80;;
23470;SDS011;11908;50.806;4.424;2023-05-01T07:02:30;13.07;;;11.63;;
23470;SDS011;11908;50.806;4.424;2023-05-01T07:04:56;16.25;;;12.27;;
23470;SDS011;11908;50.806;4.424;2023-05-01T07:07:22;15.85;;;12.60;;
23470;SDS011;11908;50.806;4.424;2023-05-01T07:09:48;14.23;;;12.45;;
23470;SDS011;11908;50.806;4.424;2023-05-01T07:12:14;17.90;;;12.40;;
23470;SDS011;11908;50.806;4.424;2023-05-01T07:14:40;16.48;;;12.80;;
23470;SDS011;11908;50.806;4.424;2023-05-01T07:17:05;15.35;;;12.63;;
23470;SDS011;11908;50.806;4.424;2023-05-01T07:19:32;15.48;;;13.27;;
23470;SDS011;11908;50.806;4.424;2023-05-01T07:21:59;20.70;;;13.02;;
23470;SDS011;11908;50.806;4.424;2023-05-01T07:24:25;15.30;;;12.63;;
23470;SDS011;11908;50.806;4.424;2023-05-01T07:26:50;17.35;;;12.15;;
23470;SDS011;11908;50.806;4.424;2023-05-01T07:29:16;16.65;;;12.60;;
23470;SDS011;11908;50.806;4.424;2023-05-01T07:31:42;16.13;;;13.52;;
23470;SDS011;11908;50.806;4.424;2023-05-01T07:34:08;16.25;;;14.55;;
23470;SDS011;11908;50.806;4.424;2023-05-01T07:36:34;17.75;;;15.50;;
23470;SDS011;11908;50.806;4.424;2023-05-01T07:38:59;18.20;;;14.52;;
23470;SDS011;11908;50.806;4.424;2023-05-01T07:41:25;17.95;;;15.00;;
23470;SDS011;11908;50.806;4.424;2023-05-01T07:43:51;19.30;;;14.55;;
23470;SDS011;11908;50.806;4.424;2023-05-01T07:46:17;19.35;;;13.60;;
23470;SDS011;11908;50.806;4.424;2023-05-01T07:48:42;19.77;;;14.05;;
23470;SDS011;11908;50.806;4.424;2023-05-01T07:51:08;16.20;;;13.15;;
23470;SDS011;11908;50.806;4.424;2023-05-01T07:53:33;17.58;;;13.70;;
23470;SDS011;11908;50.806;4.424;2023-05-01T07:56:08;15.98;;;13.88;;
23470;SDS011;11908;50.806;4.424;2023-05-01T07:58:34;20.80;;;13.98;;
23470;SDS011;11908;50.806;4.424;2023-05-01T08:01:01;15.02;;;13.45;;
23470;SDS011;11908;50.806;4.424;2023-05-01T08:03:27;17.48;;;14.65;;
23470;SDS011;11908;50.806;4.424;2023-05-01T08:05:54;20.48;;;15.85;;
23470;SDS011;11908;50.806;4.424;2023-05-01T08:08:20;18.63;;;15.40;;
23470;SDS011;11908;50.806;4.424;2023-05-01T08:10:46;21.10;;;17.30;;
23470;SDS011;11908;50.806;4.424;2023-05-01T08:13:12;21.23;;;17.08;;
23470;SDS011;11908;50.806;4.424;2023-05-01T08:15:38;23.02;;;18.45;;
23470;SDS011;11908;50.806;4.424;2023-05-01T08:18:06;20.35;;;18.27;;
23470;SDS011;11908;50.806;4.424;2023-05-01T08:20:32;23.35;;;19.42;;
23470;SDS011;11908;50.806;4.424;2023-05-01T08:22:59;24.17;;;19.23;;
23470;SDS011;11908;50.806;4.424;2023-05-01T08:25:25;21.83;;;17.83;;
23470;SDS011;11908;50.806;4.424;2023-05-01T08:27:50;20.73;;;17.85;;
23470;SDS011;11908;50.806;4.424;2023-05-01T08:30:16;26.58;;;21.02;;
23470;SDS011;11908;50.806;4.424;2023-05-01T08:32:42;24.20;;;20.08;;
23470;SDS011;11908;50.806;4.424;2023-05-01T08:35:07;28.85;;;20.63;;
23470;SDS011;11908;50.806;4.424;2023-05-01T08:37:33;25.20;;;19.85;;
23470;SDS011;11908;50.806;4.424;2023-05-01T08:39:59;24.42;;;20.05;;
23470;SDS011;11908;50.806;4.424;2023-05-01T08:42:28;25.73;;;20.63;;
23470;SDS011;11908;50.806;4.424;2023-05-01T08:44:54;27.58;;;21.45;;
23470;SDS011;11908;50.806;4.424;2023-05-01T08:47:23;27.10;;;21.13;;
23470;SDS011;11908;50.806;4.424;2023-05-01T08:49:50;24.63;;;21.77;;
23470;SDS011;11908;50.806;4.424;2023-05-01T08:52:17;23.83;;;19.63;;
23470;SDS011;11908;50.806;4.424;2023-05-01T08:54:44;24.88;;;20.33;;
23470;SDS011;11908;50.806;4.424;2023-05-01T08:57:11;26.92;;;19.80;;
23470;SDS011;11908;50.806;4.424;2023-05-01T08:59:38;22.55;;;19.67;;
23470;SDS011;11908;50.806;4.424;2023-05-01T09:02:05;22.40;;;19.35;;
23470;SDS011;11908;50.806;4.424;2023-05-01T09:04:33;23.58;;;20.73;;
23470;SDS011;11908;50.806;4.424;2023-05-01T09:07:01;24.60;;;19.85;;
23470;SDS011;11908;50.806;4.424;2023-05-01T09:09:30;24.52;;;19.15;;
23470;SDS011;11908;50.806;4.424;2023-05-01T09:12:03;24.15;;;21.00;;
23470;SDS011;11908;50.806;4.424;2023-05-01T09:14:41;23.05;;;20.45;;
23470;SDS011;11908;50.806;4.424;2023-05-01T09:17:07;24.50;;;20.73;;
23470;SDS011;11908;50.806;4.424;2023-05-01T09:19:33;22.50;;;19.80;;
23470;SDS011;11908;50.806;4.424;2023-05-01T09:21:59;28.95;;;22.40;;
23470;SDS011;11908;50.806;4.424;2023-05-01T09:24:25;30.00;;;24.00;;
23470;SDS011;11908;50.806;4.424;2023-05-01T09:26:51;28.38;;;24.02;;
23470;SDS011;11908;50.806;4.424;2023-05-01T09:29:39;26.00;;;22.95;;
23470;SDS011;11908;50.806;4.424;2023-05-01T09:32:13;31.45;;;25.30;;
23470;SDS011;11908;50.806;4.424;2023-05-01T09:34:47;28.38;;;24.15;;
23470;SDS011;11908;50.806;4.424;2023-05-01T09:37:26;31.15;;;24.98;;
23470;SDS011;11908;50.806;4.424;2023-05-01T09:40:01;31.00;;;24.58;;
23470;SDS011;11908;50.806;4.424;2023-05-01T09:42:46;30.50;;;24.95;;
23470;SDS011;11908;50.806;4.424;2023-05-01T09:45:14;34.40;;;26.98;;
23470;SDS011;11908;50.806;4.424;2023-05-01T09:47:41;34.35;;;27.42;;
23470;SDS011;11908;50.806;4.424;2023-05-01T09:50:11;36.63;;;27.73;;
23470;SDS011;11908;50.806;4.424;2023-05-01T09:52:53;36.72;;;27.73;;
23470;SDS011;11908;50.806;4.424;2023-05-01T09:55:18;32.47;;;25.88;;
23470;SDS011;11908;50.806;4.424;2023-05-01T09:57:45;39.05;;;28.65;;
23470;SDS011;11908;50.806;4.424;2023-05-01T10:00:15;35.88;;;27.05;;
23470;SDS011;11908;50.806;4.424;2023-05-01T10:02:43;33.92;;;26.58;;
23470;SDS011;11908;50.806;4.424;2023-05-01T10:05:11;37.75;;;28.55;;
23470;SDS011;11908;50.806;4.424;2023-05-01T10:07:37;31.90;;;26.15;;
23470;SDS011;11908;50.806;4.424;2023-05-01T10:10:14;34.20;;;25.98;;
23470;SDS011;11908;50.806;4.424;2023-05-01T10:12:41;35.53;;;27.38;;
23470;SDS011;11908;50.806;4.424;2023-05-01T10:15:06;32.13;;;24.77;;
23470;SDS011;11908;50.806;4.424;2023-05-01T10:17:34;29.35;;;25.85;;
23470;SDS011;11908;50.806;4.424;2023-05-01T10:20:00;30.05;;;24.85;;
23470;SDS011;11908;50.806;4.424;2023-05-01T10:22:26;29.15;;;24.50;;
23470;SDS011;11908;50.806;4.424;2023-05-01T10:24:52;27.45;;;23.25;;
23470;SDS011;11908;50.806;4.424;2023-05-01T10:27:18;25.55;;;21.77;;
23470;SDS011;11908;50.806;4.424;2023-05-01T10:29:46;27.50;;;22.10;;
23470;SDS011;11908;50.806;4.424;2023-05-01T10:32:13;25.00;;;21.20;;
23470;SDS011;11908;50.806;4.424;2023-05-01T10:34:44;25.30;;;21.42;;
23470;SDS011;11908;50.806;4.424;2023-05-01T10:37:18;26.17;;;22.08;;
23470;SDS011;11908;50.806;4.424;2023-05-01T10:39:48;23.13;;;20.23;;
23470;SDS011;11908;50.806;4.424;2023-05-01T10:42:13;26.10;;;21.25;;
23470;SDS011;11908;50.806;4.424;2023-05-01T10:44:39;23.08;;;20.10;;
23470;SDS011;11908;50.806;4.424;2023-05-01T10:55:40;22.65;;;18.58;;
23470;SDS011;11908;50.806;4.424;2023-05-01T10:58:07;21.02;;;17.83;;
23470;SDS011;11908;50.806;4.424;2023-05-01T11:00:33;21.45;;;17.45;;
23470;SDS011;11908;50.806;4.424;2023-05-01T11:08:29;23.42;;;19.35;;
23470;SDS011;11908;50.806;4.424;2023-05-01T11:19:02;19.95;;;17.50;;
23470;SDS011;11908;50.806;4.424;2023-05-01T11:21:29;19.90;;;17.00;;
23470;SDS011;11908;50.806;4.424;2023-05-01T11:23:59;27.77;;;17.92;;
23470;SDS011;11908;50.806;4.424;2023-05-01T11:26:25;19.50;;;16.42;;
23470;SDS011;11908;50.806;4.424;2023-05-01T11:28:53;23.23;;;18.45;;
23470;SDS011;11908;50.806;4.424;2023-05-01T11:31:21;20.73;;;18.33;;
23470;SDS011;11908;50.806;4.424;2023-05-01T11:33:46;21.45;;;17.92;;
23470;SDS011;11908;50.806;4.424;2023-05-01T11:36:12;19.30;;;17.30;;
23470;SDS011;11908;50.806;4.424;2023-05-01T11:38:48;17.80;;;15.85;;
23470;SDS011;11908;50.806;4.424;2023-05-01T11:41:16;18.65;;;15.73;;
23470;SDS011;11908;50.806;4.424;2023-05-01T11:43:50;17.67;;;15.85;;
23470;SDS011;11908;50.806;4.424;2023-05-01T11:46:27;19.48;;;14.95;;
23470;SDS011;11908;50.806;4.424;2023-05-01T11:48:55;22.15;;;15.50;;
23470;SDS011;11908;50.806;4.424;2023-05-01T11:51:21;18.52;;;14.68;;
23470;SDS011;11908;50.806;4.424;2023-05-01T11:54:05;16.63;;;13.07;;
23470;SDS011;11908;50.806;4.424;2023-05-01T11:56:34;13.15;;;11.05;;
23470;SDS011;11908;50.806;4.424;2023-05-01T11:59:14;13.27;;;11.10;;
23470;SDS011;11908;50.806;4.424;2023-05-01T12:01:41;12.00;;;10.20;;
23470;SDS011;11908;50.806;4.424;2023-05-01T12:04:09;13.73;;;10.52;;
23470;SDS011;11908;50.806;4.424;2023-05-01T12:09:07;11.98;;;9.43;;
23470;SDS011;11908;50.806;4.424;2023-05-01T12:11:34;13.25;;;9.50;;
23470;SDS011;11908;50.806;4.424;2023-05-01T12:14:00;12.50;;;10.65;;
23470;SDS011;11908;50.806;4.424;2023-05-01T12:16:26;10.40;;;9.02;;
23470;SDS011;11908;50.806;4.424;2023-05-01T12:18:53;17.05;;;11.05;;
23470;SDS011;11908;50.806;4.424;2023-05-01T12:21:19;12.75;;;9.50;;
23470;SDS011;11908;50.806;4.424;2023-05-01T12:23:45;14.50;;;10.57;;
23470;SDS011;11908;50.806;4.424;2023-05-01T12:26:18;13.63;;;9.93;;
23470;SDS011;11908;50.806;4.424;2023-05-01T12:28:55;11.95;;;10.25;;
23470;SDS011;11908;50.806;4.424;2023-05-01T12:31:24;12.95;;;10.00;;
23470;SDS011;11908;50.806;4.424;2023-05-01T12:36:23;14.30;;;11.75;;
23470;SDS011;11908;50.806;4.424;2023-05-01T12:38:55;16.02;;;12.15;;
23470;SDS011;11908;50.806;4.424;2023-05-01T12:41:30;15.48;;;12.15;;
23470;SDS011;11908;50.806;4.424;2023-05-01T12:43:58;15.95;;;12.77;;
23470;SDS011;11908;50.806;4.424;2023-05-01T12:46:24;15.93;;;11.73;;
23470;SDS011;11908;50.806;4.424;2023-05-01T12:48:50;14.98;;;11.55;;
23470;SDS011;11908;50.806;4.424;2023-05-01T12:51:17;16.33;;;12.20;;
23470;SDS011;11908;50.806;4.424;2023-05-01T12:53:44;17.70;;;13.00;;
23470;SDS011;11908;50.806;4.424;2023-05-01T12:56:18;15.75;;;12.25;;
23470;SDS011;11908;50.806;4.424;2023-05-01T12:58:47;15.65;;;12.25;;
23470;SDS011;11908;50.806;4.424;2023-05-01T13:01:21;15.02;;;12.13;;
23470;SDS011;11908;50.806;4.424;2023-05-01T13:03:51;17.05;;;12.60;;
23470;SDS011;11908;50.806;4.424;2023-05-01T13:06:18;14.98;;;11.98;;
23470;SDS011;11908;50.806;4.424;2023-05-01T13:08:44;16.75;;;12.70;;
23470;SDS011;11908;50.806;4.424;2023-05-01T13:11:14;14.90;;;11.75;;
23470;SDS011;11908;50.806;4.424;2023-05-01T13:13:44;16.45;;;14.35;;
23470;SDS011;11908;50.806;4.424;2023-05-01T13:16:11;16.23;;;13.77;;
23470;SDS011;11908;50.806;4.424;2023-05-01T13:18:45;15.48;;;13.88;;
23470;SDS011;11908;50.806;4.424;2023-05-01T13:21:12;18.05;;;15.20;;
23470;SDS011;11908;50.806;4.424;2023-05-01T13:23:40;20.92;;;17.38;;
23470;SDS011;11908;50.806;4.424;2023-05-01T13:26:06;20.38;;;17.30;;
23470;SDS011;11908;50.806;4.424;2023-05-01T13:28:42;22.10;;;16.85;;
23470;SDS011;11908;50.806;4.424;2023-05-01T13:31:14;17.52;;;15.52;;
23470;SDS011;11908;50.806;4.424;2023-05-01T13:33:40;19.88;;;15.63;;
23470;SDS011;11908;50.806;4.424;2023-05-01T13:36:09;21.60;;;17.35;;
23470;SDS011;11908;50.806;4.424;2023-05-01T13:41:29;21.33;;;16.85;;
23470;SDS011;11908;50.806;4.424;2023-05-01T13:43:55;21.17;;;16.80;;
23470;SDS011;11908;50.806;4.424;2023-05-01T13:46:22;20.77;;;16.88;;
23470;SDS011;11908;50.806;4.424;2023-05-01T13:48:48;24.10;;;16.25;;
23470;SDS011;11908;50.806;4.424;2023-05-01T13:51:24;22.55;;;16.90;;
23470;SDS011;11908;50.806;4.424;2023-05-01T13:53:51;22.27;;;17.02;;
23470;SDS011;11908;50.806;4.424;2023-05-01T13:56:20;23.15;;;17.25;;
23470;SDS011;11908;50.806;4.424;2023-05-01T13:58:45;21.95;;;17.70;;
23470;SDS011;11908;50.806;4.424;2023-05-01T14:01:15;26.65;;;20.30;;
23470;SDS011;11908;50.806;4.424;2023-05-01T14:03:42;24.13;;;19.05;;
23470;SDS011;11908;50.806;4.424;2023-05-01T14:06:09;22.55;;;18.50;;
23470;SDS011;11908;50.806;4.424;2023-05-01T14:08:45;26.15;;;18.35;;
23470;SDS011;11908;50.806;4.424;2023-05-01T14:11:12;22.10;;;18.50;;
23470;SDS011;11908;50.806;4.424;2023-05-01T14:13:39;25.63;;;21.20;;
23470;SDS011;11908;50.806;4.424;2023-05-01T14:16:06;22.08;;;19.65;;
23470;SDS011;11908;50.806;4.424;2023-05-01T14:18:40;27.02;;;21.23;;
23470;SDS011;11908;50.806;4.424;2023-05-01T14:21:15;22.58;;;17.45;;
23470;SDS011;11908;50.806;4.424;2023-05-01T14:23:42;22.40;;;17.00;;
23470;SDS011;11908;50.806;4.424;2023-05-01T14:26:08;21.13;;;17.70;;
23470;SDS011;11908;50.806;4.424;2023-05-01T14:28:40;20.10;;;16.98;;
23470;SDS011;11908;50.806;4.424;2023-05-01T14:31:07;22.60;;;17.45;;
23470;SDS011;11908;50.806;4.424;2023-05-01T14:33:33;17.77;;;14.15;;
23470;SDS011;11908;50.806;4.424;2023-05-01T14:36:06;18.88;;;16.02;;
23470;SDS011;11908;50.806;4.424;2023-05-01T14:38:32;18.10;;;13.98;;
23470;SDS011;11908;50.806;4.424;2023-05-01T14:41:03;20.45;;;13.63;;
23470;SDS011;11908;50.806;4.424;2023-05-01T14:43:29;14.10;;;12.40;;
23470;SDS011;11908;50.806;4.424;2023-05-01T14:45:57;17.23;;;11.55;;
23470;SDS011;11908;50.806;4.424;2023-05-01T14:48:23;20.60;;;12.70;;
23470;SDS011;11908;50.806;4.424;2023-05-01T14:50:51;16.77;;;12.95;;
23470;SDS011;11908;50.806;4.424;2023-05-01T14:53:18;19.05;;;14.05;;
23470;SDS011;11908;50.806;4.424;2023-05-01T14:55:44;18.52;;;12.65;;
23470;SDS011;11908;50.806;4.424;2023-05-01T14:58:14;17.63;;;13.23;;
23470;SDS011;11908;50.806;4.424;2023-05-01T15:00:39;17.65;;;13.10;;
23470;SDS011;11908;50.806;4.424;2023-05-01T15:03:05;17.33;;;13.23;;
23470;SDS011;11908;50.806;4.424;2023-05-01T15:05:31;13.40;;;11.00;;
23470;SDS011;11908;50.806;4.424;2023-05-01T15:07:57;14.05;;;11.00;;
23470;SDS011;11908;50.806;4.424;2023-05-01T15:10:26;19.27;;;14.38;;
23470;SDS011;11908;50.806;4.424;2023-05-01T15:12:52;16.27;;;12.55;;
23470;SDS011;11908;50.806;4.424;2023-05-01T15:15:19;15.38;;;11.68;;
23470;SDS011;11908;50.806;4.424;2023-05-01T15:17:45;13.18;;;11.18;;
23470;SDS011;11908;50.806;4.424;2023-05-01T15:20:10;15.27;;;10.88;;
23470;SDS011;11908;50.806;4.424;2023-05-01T15:22:37;15.38;;;11.00;;
23470;SDS011;11908;50.806;4.424;2023-05-01T15:25:02;14.95;;;10.52;;
23470;SDS011;11908;50.806;4.424;2023-05-01T15:27:28;13.35;;;10.35;;
23470;SDS011;11908;50.806;4.424;2023-05-01T15:29:54;17.80;;;10.82;;
23470;SDS011;11908;50.806;4.424;2023-05-01T15:32:20;14.73;;;11.23;;